Time;durP1;ratioP1;P1;durP2;ratioP2;P2;SDS_P1;SDS_P2;PMS_P1;PMS_P2;Temp;Humidity;BMP_temperature;BMP_pressure;BME280_temperature;BME280_humidity;BME280_pressure;Samples;Min_cycle;Max_cycle;Signal;HPM_P1;HPM_P2
2022/11/25 00:01:24;;;;;;;11.88;2.40;;;;;;;7.06;100.00;100854.13;5074099;28;20072;-53
2022/11/25 00:03:55;;;;;;;15.80;3.05;;;;;;;7.05;100.00;100860.31;5074273;28;20044;-50
2022/11/25 00:06:27;;;;;;;9.77;2.30;;;;;;;7.07;100.00;100863.66;5074346;28;20443;-49
2022/11/25 00:08:57;;;;;;;16.50;3.28;;;;;;;7.01;100.00;100851.75;5074231;28;20060;-53
2022/11/25 00:11:26;;;;;;;17.52;3.28;;;;;;;6.98;100.00;100851.06;5074677;28;20059;-50
2022/11/25 00:13:56;;;;;;;15.15;2.92;;;;;;;6.99;100.00;100837.91;5074680;28;20054;-50
2022/11/25 00:16:26;;;;;;;12.65;3.33;;;;;;;7.03;100.00;100839.44;5074580;28;20056;-49
2022/11/25 00:18:56;;;;;;;15.27;2.83;;;;;;;7.08;100.00;100831.38;5074273;28;20509;-52
2022/11/25 00:21:28;;;;;;;13.43;2.95;;;;;;;6.98;100.00;100835.38;5074331;28;20049;-52
2022/11/25 00:23:57;;;;;;;13.37;2.57;;;;;;;6.96;100.00;100829.38;5074257;28;20417;-53
2022/11/25 00:26:26;;;;;;;17.48;3.03;;;;;;;7.01;100.00;100832.59;5074310;28;20053;-48
2022/11/25 00:28:57;;;;;;;17.17;3.28;;;;;;;6.98;100.00;100823.16;5074285;28;20678;-50
2022/11/25 00:31:27;;;;;;;16.17;2.85;;;;;;;6.93;100.00;100833.00;5074424;28;20505;-51
2022/11/25 00:33:56;;;;;;;14.57;3.60;;;;;;;6.92;100.00;100826.06;5074212;28;20487;-49
2022/11/25 00:36:28;;;;;;;19.02;3.70;;;;;;;7.00;100.00;100821.28;5072682;28;20503;-50
2022/11/25 00:38:58;;;;;;;15.00;3.40;;;;;;;7.06;100.00;100821.00;5072569;28;20048;-50
2022/11/25 00:46:56;;;;;;;18.73;3.60;;;;;;;7.07;100.00;100819.22;5073519;28;20094;-53
2022/11/25 00:49:25;;;;;;;15.75;3.30;;;;;;;7.10;100.00;100816.44;5073415;28;20068;-51
2022/11/25 00:51:55;;;;;;;18.63;3.13;;;;;;;7.11;100.00;100815.50;5073685;28;20143;-50
2022/11/25 00:54:23;;;;;;;11.93;2.70;;;;;;;7.10;100.00;100814.69;5073646;28;20036;-51
2022/11/25 00:56:52;;;;;;;12.95;3.20;;;;;;;7.17;100.00;100820.44;5073850;28;20417;-50
2022/11/25 00:59:20;;;;;;;12.73;2.40;;;;;;;7.14;100.00;100822.38;5073577;28;20048;-51
2022/11/25 01:01:48;;;;;;;14.02;2.83;;;;;;;7.13;100.00;100821.53;5073440;28;20418;-52
2022/11/25 01:04:17;;;;;;;17.25;3.20;;;;;;;7.11;100.00;100810.28;5072380;28;20052;-50
2022/11/25 01:06:45;;;;;;;14.27;2.90;;;;;;;7.03;100.00;100813.28;5073356;28;20051;-50
2022/11/25 01:09:14;;;;;;;11.48;2.80;;;;;;;7.06;100.00;100807.06;5073445;28;20048;-52
2022/11/25 01:11:42;;;;;;;13.27;2.90;;;;;;;7.07;100.00;100820.03;5073228;28;20074;-52
2022/11/25 01:14:10;;;;;;;11.45;2.85;;;;;;;7.05;100.00;100815.84;5073350;28;20052;-49
2022/11/25 01:16:38;;;;;;;11.80;2.33;;;;;;;7.15;100.00;100814.44;5073273;28;20560;-48
2022/11/25 01:19:07;;;;;;;15.63;3.47;;;;;;;7.17;100.00;100812.59;5072594;28;20088;-53
2022/11/25 01:21:35;;;;;;;16.45;2.85;;;;;;;7.13;100.00;100811.06;5073007;28;20068;-48
2022/11/25 01:24:05;;;;;;;13.52;3.13;;;;;;;7.05;100.00;100810.63;5072043;28;20446;-50
2022/11/25 01:26:35;;;;;;;12.15;2.90;;;;;;;7.10;100.00;100806.84;5073098;28;20045;-51
2022/11/25 01:29:06;;;;;;;13.43;2.65;;;;;;;7.10;100.00;100811.19;5073234;28;20049;-52
2022/11/25 01:31:35;;;;;;;13.23;2.88;;;;;;;7.11;100.00;100818.13;5071210;28;20090;-48
2022/11/25 01:34:06;;;;;;;14.38;2.85;;;;;;;7.10;100.00;100821.66;5068714;28;20045;-52
2022/11/25 01:36:34;;;;;;;13.02;2.72;;;;;;;7.11;100.00;100813.72;5070831;28;20136;-48
2022/11/25 01:39:02;;;;;;;14.25;3.13;;;;;;;7.17;100.00;100814.34;5068311;28;20051;-50
2022/11/25 01:41:33;;;;;;;12.88;2.70;;;;;;;7.12;100.00;100806.75;5067213;28;20549;-49
2022/11/25 01:44:13;;;;;;;18.70;3.33;;;;;;;7.15;100.00;100808.38;5072979;28;20037;-57
2022/11/25 01:46:55;;;;;;;17.23;3.08;;;;;;;7.15;100.00;100801.34;5072864;28;20037;-57
2022/11/25 01:49:29;;;;;;;13.95;2.58;;;;;;;7.15;100.00;100796.13;5072818;28;20072;-56
2022/11/25 01:52:02;;;;;;;12.40;2.35;;;;;;;7.19;100.00;100808.13;5068120;28;20495;-57
2022/11/25 01:54:35;;;;;;;14.77;2.70;;;;;;;7.14;100.00;100811.91;5069236;28;20478;-56
2022/11/25 01:57:08;;;;;;;16.17;3.47;;;;;;;7.17;100.00;100810.00;5070635;28;20048;-56
2022/11/25 01:59:41;;;;;;;13.10;2.28;;;;;;;7.21;100.00;100808.91;5066740;28;20068;-57
2022/11/25 02:02:10;;;;;;;15.82;3.92;;;;;;;7.24;100.00;100806.13;5067473;28;20048;-53
2022/11/25 02:04:40;;;;;;;11.73;2.58;;;;;;;7.28;100.00;100804.19;5067541;28;20368;-57
2022/11/25 02:07:14;;;;;;;16.23;3.85;;;;;;;7.27;100.00;100798.09;5068345;28;20395;-57
2022/11/25 02:09:45;;;;;;;9.20;2.35;;;;;;;7.27;100.00;100813.81;5067676;28;20045;-57
2022/11/25 02:12:16;;;;;;;13.68;3.22;;;;;;;7.26;100.00;100806.03;5066565;28;20565;-57
2022/11/25 02:14:46;;;;;;;22.23;3.33;;;;;;;7.22;100.00;100810.56;5072141;28;20131;-55
2022/11/25 02:17:15;;;;;;;14.27;3.20;;;;;;;7.22;100.00;100807.97;5072319;28;20430;-56
2022/11/25 02:19:56;;;;;;;16.10;2.42;;;;;;;7.31;100.00;100806.66;5072421;28;20110;-55
2022/11/25 02:22:30;;;;;;;12.75;2.75;;;;;;;7.23;100.00;100814.88;5072391;28;20041;-55
2022/11/25 02:25:09;;;;;;;13.35;2.90;;;;;;;7.26;100.00;100817.34;5072040;28;20403;-56
2022/11/25 02:27:37;;;;;;;16.88;2.70;;;;;;;7.31;100.00;100814.50;5072141;28;20495;-57
2022/11/25 02:30:07;;;;;;;18.20;2.60;;;;;;;7.34;100.00;100805.66;5072278;28;20045;-57
2022/11/25 02:32:35;;;;;;;20.23;3.28;;;;;;;7.36;100.00;100814.25;5076488;28;20048;-56
2022/11/25 02:35:25;;;;;;;12.15;2.63;;;;;;;7.32;100.00;100813.59;5076438;28;20492;-56
2022/11/25 02:37:56;;;;;;;14.00;2.72;;;;;;;7.33;100.00;100809.19;5076180;28;20048;-56
2022/11/25 02:40:27;;;;;;;17.50;3.20;;;;;;;7.30;100.00;100814.59;5076271;28;20094;-56
2022/11/25 02:42:59;;;;;;;10.40;2.78;;;;;;;7.30;100.00;100819.81;5075060;28;20049;-56
2022/11/25 02:45:36;;;;;;;13.82;3.28;;;;;;;7.30;100.00;100820.66;5076011;28;20495;-57
2022/11/25 02:48:05;;;;;;;11.73;2.70;;;;;;;7.31;100.00;100824.97;5076436;28;20094;-56
2022/11/25 02:50:33;;;;;;;11.75;2.65;;;;;;;7.31;100.00;100829.34;5076098;28;20057;-51
2022/11/25 02:53:01;;;;;;;18.05;3.28;;;;;;;7.30;100.00;100832.91;5076044;28;20499;-52
2022/11/25 02:55:31;;;;;;;14.38;3.00;;;;;;;7.33;100.00;100835.34;5075794;28;20059;-51
2022/11/25 02:57:59;;;;;;;13.45;2.85;;;;;;;7.32;100.00;100837.13;5076049;28;20420;-57
2022/11/25 03:00:27;;;;;;;12.60;3.00;;;;;;;7.33;100.00;100845.81;5076083;28;20044;-57
2022/11/25 03:02:56;;;;;;;10.88;2.67;;;;;;;7.34;100.00;100844.91;5071285;28;20060;-57
2022/11/25 03:05:24;;;;;;;18.00;3.05;;;;;;;7.40;100.00;100857.66;5072115;28;20049;-57
2022/11/25 03:07:52;;;;;;;10.60;2.67;;;;;;;7.41;100.00;100848.88;5075766;28;20075;-56
2022/11/25 03:10:20;;;;;;;17.08;3.10;;;;;;;7.41;100.00;100843.66;5072379;28;20122;-57
2022/11/25 03:12:50;;;;;;;12.60;2.70;;;;;;;7.39;100.00;100853.31;5070524;28;20044;-56
2022/11/25 03:15:18;;;;;;;13.63;2.95;;;;;;;7.42;100.00;100840.09;5074747;28;20098;-49
2022/11/25 03:17:47;;;;;;;13.32;2.78;;;;;;;7.40;100.00;100839.31;5075372;28;20123;-52
2022/11/25 03:20:15;;;;;;;13.88;2.67;;;;;;;7.41;100.00;100838.41;5074119;28;20095;-56
2022/11/25 03:22:43;;;;;;;15.80;3.45;;;;;;;7.42;100.00;100835.72;5068991;28;20547;-56
2022/11/25 03:25:12;;;;;;;15.05;3.05;;;;;;;7.43;100.00;100847.88;5073601;28;20040;-56
2022/11/25 03:27:41;;;;;;;17.42;3.20;;;;;;;7.42;100.00;100851.41;5073833;28;20048;-56
2022/11/25 03:30:14;;;;;;;14.43;3.38;;;;;;;7.43;100.00;100865.31;5075279;28;20053;-56
2022/11/25 03:32:42;;;;;;;13.18;3.22;;;;;;;7.42;100.00;100864.50;5073788;28;20076;-54
2022/11/25 03:35:13;;;;;;;14.63;2.90;;;;;;;7.48;100.00;100850.25;5075330;28;20048;-56
2022/11/25 03:37:42;;;;;;;20.95;3.58;;;;;;;7.48;100.00;100867.72;5071496;28;20507;-56
2022/11/25 03:40:12;;;;;;;15.77;3.17;;;;;;;7.49;100.00;100858.97;5070608;28;20114;-55
2022/11/25 03:42:41;;;;;;;18.05;3.30;;;;;;;7.49;100.00;100859.78;5068499;28;20052;-56
2022/11/25 03:45:13;;;;;;;15.10;2.72;;;;;;;7.53;100.00;100856.09;5068115;28;20045;-57
2022/11/25 03:47:42;;;;;;;13.48;2.70;;;;;;;7.54;100.00;100844.69;5070918;28;20102;-57
2022/11/25 03:50:12;;;;;;;24.67;3.47;;;;;;;7.56;100.00;100816.66;5075013;28;20083;-57
2022/11/25 03:52:41;;;;;;;13.07;2.97;;;;;;;7.55;100.00;100822.84;5074698;28;20094;-57
2022/11/25 03:55:11;;;;;;;15.05;3.33;;;;;;;7.65;100.00;100835.41;5074221;28;20059;-57
2022/11/25 03:57:40;;;;;;;17.15;3.58;;;;;;;7.59;100.00;100842.69;5070087;28;20044;-57
2022/11/25 04:00:09;;;;;;;14.07;3.38;;;;;;;7.59;100.00;100858.41;5072692;28;20076;-55
2022/11/25 04:02:39;;;;;;;14.18;4.38;;;;;;;7.53;100.00;100858.72;5075066;28;20044;-56
2022/11/25 04:05:08;;;;;;;16.52;4.20;;;;;;;7.57;100.00;100836.69;5074766;28;20094;-57
2022/11/25 04:07:36;;;;;;;18.80;4.07;;;;;;;7.58;100.00;100850.59;5069882;28;20052;-57
2022/11/25 04:10:04;;;;;;;11.40;3.53;;;;;;;7.57;100.00;100843.69;5070132;28;20040;-56
2022/11/25 04:12:47;;;;;;;13.25;3.53;;;;;;;7.57;100.00;100839.28;5070846;28;20462;-55
2022/11/25 04:15:16;;;;;;;14.70;3.27;;;;;;;7.60;100.00;100852.22;5074281;28;20044;-56
2022/11/25 04:17:46;;;;;;;12.43;3.72;;;;;;;7.54;100.00;100857.78;5074301;28;20518;-55
2022/11/25 04:20:15;;;;;;;14.43;3.45;;;;;;;7.59;100.00;100863.63;5074198;28;20048;-55
2022/11/25 04:22:43;;;;;;;16.77;3.55;;;;;;;7.55;100.00;100856.00;5071961;28;20120;-56
2022/11/25 04:25:11;;;;;;;14.60;3.67;;;;;;;7.51;100.00;100859.72;5069544;28;20079;-57
2022/11/25 04:27:39;;;;;;;15.70;3.47;;;;;;;7.51;100.00;100865.81;5069145;28;20048;-57
2022/11/25 04:30:10;;;;;;;13.77;2.78;;;;;;;7.46;100.00;100880.91;5067737;28;20448;-57
2022/11/25 04:32:39;;;;;;;15.43;3.10;;;;;;;7.47;100.00;100885.19;5072807;28;20056;-60
2022/11/25 04:35:09;;;;;;;13.25;3.13;;;;;;;7.49;100.00;100890.34;5068329;28;20056;-57
2022/11/25 04:37:37;;;;;;;15.30;3.08;;;;;;;7.50;100.00;100897.25;5068720;28;20049;-57
2022/11/25 04:40:06;;;;;;;14.50;3.22;;;;;;;7.42;100.00;100908.97;5069243;28;20055;-57
2022/11/25 04:42:35;;;;;;;12.95;3.10;;;;;;;7.45;100.00;100903.59;5072372;28;20118;-57
2022/11/25 04:45:06;;;;;;;14.50;3.55;;;;;;;7.44;100.00;100899.28;5067645;28;20105;-57
2022/11/25 04:47:50;;;;;;;18.05;3.33;;;;;;;7.41;100.00;100904.66;5071270;28;20110;-50
2022/11/25 04:50:22;;;;;;;12.00;2.95;;;;;;;7.49;100.00;100912.13;5071037;28;20060;-57
2022/11/25 04:52:50;;;;;;;18.73;3.38;;;;;;;7.50;100.00;100919.06;5069260;28;20667;-57
2022/11/25 04:55:19;;;;;;;14.73;3.40;;;;;;;7.56;100.00;100912.66;5067366;28;20101;-57
2022/11/25 04:57:47;;;;;;;12.50;2.80;;;;;;;7.58;100.00;100918.66;5067163;28;20044;-57
2022/11/25 05:00:15;;;;;;;10.77;3.22;;;;;;;7.59;100.00;100921.22;5067016;28;20114;-57
2022/11/25 05:02:43;;;;;;;14.77;3.65;;;;;;;7.55;100.00;100935.38;5070026;28;20106;-57
2022/11/25 05:05:11;;;;;;;13.40;3.45;;;;;;;7.53;100.00;100939.84;5073523;28;20455;-57
2022/11/25 05:07:41;;;;;;;13.80;3.55;;;;;;;7.57;100.00;100943.16;5073451;28;20053;-57
2022/11/25 05:10:09;;;;;;;18.98;3.85;;;;;;;7.54;100.00;100946.78;5068971;28;20117;-57
2022/11/25 05:12:38;;;;;;;11.30;3.25;;;;;;;7.54;100.00;100948.53;5068227;28;20047;-57
2022/11/25 05:15:07;;;;;;;15.05;3.63;;;;;;;7.54;100.00;100948.53;5067176;28;20118;-57
2022/11/25 05:17:37;;;;;;;14.00;3.65;;;;;;;7.55;100.00;100955.47;5071287;28;20047;-56
2022/11/25 05:20:07;;;;;;;15.00;3.72;;;;;;;7.57;100.00;100962.31;5073256;28;20040;-56
2022/11/25 05:22:36;;;;;;;10.13;3.10;;;;;;;7.60;100.00;100958.69;5072648;28;20052;-57
2022/11/25 05:25:06;;;;;;;13.48;3.28;;;;;;;7.59;100.00;100957.88;5072746;28;20106;-57
2022/11/25 05:27:34;;;;;;;11.13;3.13;;;;;;;7.61;100.00;100955.16;5072922;28;20044;-56
2022/11/25 05:30:02;;;;;;;12.77;3.33;;;;;;;7.60;100.00;100958.69;5069288;28;20502;-57
2022/11/25 05:32:32;;;;;;;11.35;3.60;;;;;;;7.60;100.00;100954.28;5067808;28;20264;-57
2022/11/25 05:35:00;;;;;;;10.85;3.60;;;;;;;7.55;100.00;100958.06;5068439;28;20106;-56
2022/11/25 05:37:28;;;;;;;14.45;3.92;;;;;;;7.59;100.00;100963.09;5067939;28;20127;-57
2022/11/25 05:39:57;;;;;;;13.07;3.33;;;;;;;7.64;100.00;100960.22;5068470;28;20098;-58
2022/11/25 05:42:28;;;;;;;13.60;3.17;;;;;;;7.63;100.00;100957.69;5070089;28;20048;-56
2022/11/25 05:45:00;;;;;;;13.20;3.38;;;;;;;7.66;100.00;100960.16;5072814;28;20509;-56
2022/11/25 05:47:28;;;;;;;13.50;4.80;;;;;;;7.65;100.00;100961.94;5072826;28;20045;-56
2022/11/25 05:49:56;;;;;;;14.35;4.35;;;;;;;7.66;100.00;100966.22;5072158;28;20052;-56
2022/11/25 05:52:24;;;;;;;13.77;4.07;;;;;;;7.68;100.00;100976.66;5067448;28;20506;-56
2022/11/25 05:54:52;;;;;;;12.07;3.88;;;;;;;7.67;100.00;100974.94;5070581;28;20430;-56
2022/11/25 05:57:27;;;;;;;12.95;3.35;;;;;;;7.68;100.00;100971.41;5072621;28;20053;-56
2022/11/25 05:59:55;;;;;;;15.05;3.33;;;;;;;7.67;100.00;100974.94;5072626;28;20040;-56
2022/11/25 06:02:23;;;;;;;13.80;4.25;;;;;;;7.66;100.00;100979.31;5071143;28;20044;-56
2022/11/25 06:04:51;;;;;;;11.63;2.78;;;;;;;7.69;100.00;100983.53;5072132;28;20422;-50
2022/11/25 06:07:19;;;;;;;11.60;3.58;;;;;;;7.70;100.00;100985.25;5072451;28;20053;-52
2022/11/25 06:09:47;;;;;;;11.68;3.10;;;;;;;7.70;100.00;100985.25;5072533;28;20267;-52
2022/11/25 06:12:16;;;;;;;13.75;2.95;;;;;;;7.66;100.00;100986.31;5072618;28;20080;-48
2022/11/25 06:14:46;;;;;;;14.05;3.83;;;;;;;7.66;100.00;100989.78;5072344;28;20115;-50
2022/11/25 06:17:14;;;;;;;9.55;2.78;;;;;;;7.65;100.00;100995.97;5067541;28;20057;-50
2022/11/25 06:19:42;;;;;;;11.77;3.28;;;;;;;7.63;100.00;100999.59;5066958;28;20061;-49
2022/11/25 06:22:13;;;;;;;8.68;2.83;;;;;;;7.57;100.00;101004.19;5070985;28;20376;-55
2022/11/25 06:24:41;;;;;;;10.32;2.60;;;;;;;7.55;100.00;101002.56;5068318;28;20056;-56
2022/11/25 06:27:11;;;;;;;10.23;2.85;;;;;;;7.52;100.00;101014.03;5067858;28;20106;-57
2022/11/25 06:29:39;;;;;;;9.15;3.25;;;;;;;7.52;100.00;101011.41;5069955;28;20048;-56
2022/11/25 06:32:09;;;;;;;10.95;2.92;;;;;;;7.50;100.00;101012.41;5067972;28;20048;-56
2022/11/25 06:34:40;;;;;;;10.57;2.20;;;;;;;7.50;100.00;101015.03;5067590;28;20110;-56
2022/11/25 06:37:08;;;;;;;10.38;2.35;;;;;;;7.48;100.00;101012.50;5068344;28;20098;-56
2022/11/25 06:39:36;;;;;;;11.73;2.33;;;;;;;7.44;100.00;101010.94;5071662;28;20041;-56
2022/11/25 06:42:05;;;;;;;8.63;2.40;;;;;;;7.42;100.00;101013.66;5071597;28;20557;-54
2022/11/25 06:44:35;;;;;;;9.40;2.00;;;;;;;7.44;100.00;101017.06;5065872;28;20043;-55
2022/11/25 06:47:03;;;;;;;11.13;2.60;;;;;;;7.37;100.00;101014.81;5067292;28;20051;-56
2022/11/25 06:49:33;;;;;;;6.70;1.95;;;;;;;7.30;100.00;101024.72;5066870;28;20052;-56
2022/11/25 06:52:01;;;;;;;8.77;2.67;;;;;;;7.27;100.00;101028.31;5068393;28;20503;-56
2022/11/25 06:54:29;;;;;;;10.73;2.50;;;;;;;7.24;100.00;101030.22;5070622;28;20119;-48
2022/11/25 06:56:57;;;;;;;7.22;1.98;;;;;;;7.19;100.00;101027.84;5067621;28;20060;-48
2022/11/25 06:59:26;;;;;;;7.75;1.85;;;;;;;7.13;100.00;101033.38;5069436;28;20139;-50
2022/11/25 07:01:57;;;;;;;12.90;2.53;;;;;;;7.06;100.00;101043.28;5072049;28;20098;-52
2022/11/25 07:04:25;;;;;;;11.82;2.20;;;;;;;7.02;100.00;101046.09;5071862;28;20457;-52
2022/11/25 07:06:55;;;;;;;8.77;2.33;;;;;;;6.97;100.00;101045.47;5071883;28;20380;-52
2022/11/25 07:09:23;;;;;;;10.27;2.00;;;;;;;6.88;100.00;101058.06;5072025;28;20109;-48
2022/11/25 07:11:51;;;;;;;8.52;2.30;;;;;;;6.82;100.00;101052.28;5069906;28;20045;-48
2022/11/25 07:14:19;;;;;;;6.72;1.73;;;;;;;6.76;100.00;101059.47;5067743;28;20553;-48
2022/11/25 07:16:48;;;;;;;9.05;2.40;;;;;;;6.72;100.00;101065.78;5069616;28;20041;-50
2022/11/25 07:19:18;;;;;;;7.18;2.10;;;;;;;6.76;100.00;101063.84;5074832;28;20080;-50
2022/11/25 07:21:46;;;;;;;8.07;1.90;;;;;;;6.73;100.00;101064.00;5073968;28;20045;-51
2022/11/25 07:24:17;;;;;;;9.45;2.45;;;;;;;6.77;100.00;101073.38;5070971;28;20064;-52
2022/11/25 07:26:46;;;;;;;10.43;2.55;;;;;;;6.75;100.00;101073.47;5070394;28;20122;-56
2022/11/25 07:29:15;;;;;;;7.95;2.35;;;;;;;6.73;100.00;101077.06;5071338;28;20058;-48
2022/11/25 07:32:04;;;;;;;7.65;2.38;;;;;;;6.67;100.00;101080.81;5071178;28;20055;-56
2022/11/25 07:34:37;;;;;;;7.57;2.53;;;;;;;6.64;100.00;101082.69;5072165;28;20037;-56
2022/11/25 07:37:05;;;;;;;9.32;2.70;;;;;;;6.61;100.00;101086.28;5072317;28;20040;-56
2022/11/25 07:39:35;;;;;;;7.85;2.63;;;;;;;6.59;100.00;101095.97;5070201;28;20052;-56
2022/11/25 07:42:04;;;;;;;8.60;2.60;;;;;;;6.55;100.00;101094.44;5070468;28;20047;-56
2022/11/25 07:44:32;;;;;;;7.28;1.98;;;;;;;6.55;100.00;101104.88;5069518;28;20032;-56
2022/11/25 07:47:00;;;;;;;8.57;1.92;;;;;;;6.53;100.00;101102.34;5071375;28;20219;-55
2022/11/25 07:49:28;;;;;;;7.53;1.88;;;;;;;6.51;100.00;101112.00;5075135;28;20044;-56
2022/11/25 07:51:59;;;;;;;13.65;2.53;;;;;;;6.52;100.00;101116.31;5074870;28;20083;-55
2022/11/25 07:54:27;;;;;;;7.50;2.20;;;;;;;6.46;100.00;101116.56;5074612;28;20426;-56
2022/11/25 07:56:57;;;;;;;7.47;2.20;;;;;;;6.51;100.00;101114.59;5074209;28;20102;-56
2022/11/25 07:59:25;;;;;;;7.10;2.50;;;;;;;6.57;100.00;101118.72;5070408;28;20102;-56
2022/11/25 08:01:55;;;;;;;9.43;2.47;;;;;;;6.57;100.00;101129.16;5069853;28;20098;-56
2022/11/25 08:04:24;;;;;;;7.43;2.20;;;;;;;6.63;100.00;101128.06;5071280;28;20048;-56
2022/11/25 08:06:53;;;;;;;10.75;2.72;;;;;;;6.75;100.00;101130.13;5070214;28;20048;-49
2022/11/25 08:09:22;;;;;;;9.50;3.55;;;;;;;6.77;100.00;101138.75;5074570;28;20123;-56
2022/11/25 08:11:51;;;;;;;10.60;3.13;;;;;;;6.89;100.00;101140.81;5074578;28;20036;-56
2022/11/25 08:14:21;;;;;;;6.72;2.47;;;;;;;6.97;100.00;101142.22;5073772;28;20126;-57
2022/11/25 08:16:49;;;;;;;9.40;2.70;;;;;;;7.12;100.00;101152.00;5074224;28;20053;-55
2022/11/25 08:19:19;;;;;;;8.85;2.35;;;;;;;7.21;100.00;101140.25;5070595;28;20114;-56
2022/11/25 08:21:47;;;;;;;10.40;2.17;;;;;;;7.30;100.00;101152.09;5070561;28;20079;-55
2022/11/25 08:24:17;;;;;;;10.52;2.78;;;;;;;7.34;100.00;101154.47;5074585;28;20060;-54
2022/11/25 08:26:45;;;;;;;11.60;2.38;;;;;;;7.45;100.00;101159.22;5073946;28;20534;-56
2022/11/25 08:29:15;;;;;;;9.77;3.08;;;;;;;7.53;100.00;101159.69;5073630;28;20044;-56
2022/11/25 08:31:45;;;;;;;10.43;3.15;;;;;;;7.57;100.00;101168.25;5070680;28;20106;-56
2022/11/25 08:34:17;;;;;;;11.23;2.90;;;;;;;7.55;100.00;101167.47;5069206;28;20460;-57
2022/11/25 08:36:46;;;;;;;9.60;2.85;;;;;;;7.61;100.00;101173.25;5070640;28;20154;-56
2022/11/25 08:39:17;;;;;;;11.27;2.83;;;;;;;7.66;100.00;101172.19;5074083;28;20451;-56
2022/11/25 08:42:06;;;;;;;6.78;2.38;;;;;;;7.67;100.00;101177.34;5072496;28;20127;-56
2022/11/25 08:44:35;;;;;;;7.90;2.10;;;;;;;7.73;100.00;101179.69;5073905;28;20430;-56
2022/11/25 08:47:04;;;;;;;9.93;2.60;;;;;;;7.76;100.00;101184.78;5073939;28;20139;-56
2022/11/25 08:49:32;;;;;;;10.98;2.67;;;;;;;7.77;100.00;101186.47;5073737;28;20385;-56
2022/11/25 08:52:09;;;;;;;8.55;2.70;;;;;;;7.81;100.00;101183.72;5071579;28;20056;-58
2022/11/25 08:54:37;;;;;;;7.97;2.92;;;;;;;7.87;100.00;101189.50;5069255;28;20079;-56
2022/11/25 08:57:06;;;;;;;9.65;2.72;;;;;;;7.90;100.00;101194.56;5069236;28;20060;-56
2022/11/25 08:59:34;;;;;;;8.88;2.80;;;;;;;7.98;100.00;101196.00;5067772;28;20056;-56
2022/11/25 09:02:04;;;;;;;9.00;3.08;;;;;;;8.02;100.00;101197.53;5069107;28;20064;-56
2022/11/25 09:04:33;;;;;;;11.07;2.88;;;;;;;8.00;100.00;101192.34;5068678;28;20051;-56
2022/11/25 09:07:03;;;;;;;9.68;3.10;;;;;;;8.08;100.00;101198.06;5071839;28;20724;-56
2022/11/25 09:09:34;;;;;;;9.20;2.50;;;;;;;8.07;100.00;101199.00;5073279;28;20051;-48
2022/11/25 09:12:03;;;;;;;11.70;3.10;;;;;;;8.13;100.00;101203.09;5073366;28;20076;-49
2022/11/25 09:14:31;;;;;;;9.65;3.00;;;;;;;8.16;100.00;101200.31;5073358;28;20488;-48
2022/11/25 09:17:00;;;;;;;10.95;3.42;;;;;;;8.23;100.00;101206.94;5072999;28;20048;-51
2022/11/25 09:19:30;;;;;;;9.45;3.33;;;;;;;8.26;100.00;101208.56;5072935;28;20132;-50
2022/11/25 09:21:58;;;;;;;11.13;2.83;;;;;;;8.31;100.00;101211.81;5073174;28;20040;-49
2022/11/25 09:24:26;;;;;;;10.48;3.33;;;;;;;8.34;100.00;101208.19;5072203;28;20047;-54
2022/11/25 09:26:54;;;;;;;13.48;3.80;;;;;;;8.42;100.00;101221.78;5068699;28;20048;-51
2022/11/25 09:29:22;;;;;;;10.27;3.33;;;;;;;8.55;100.00;101222.00;5070447;28;20479;-51
2022/11/25 09:31:50;;;;;;;8.70;3.35;;;;;;;8.66;100.00;101224.97;5072701;28;20044;-48
2022/11/25 09:34:22;;;;;;;10.48;2.63;;;;;;;8.79;100.00;101233.03;5073048;28;20132;-52
2022/11/25 09:36:51;;;;;;;10.15;2.85;;;;;;;8.88;100.00;101235.19;5072599;28;20099;-48
2022/11/25 09:39:20;;;;;;;9.32;3.08;;;;;;;9.12;100.00;101243.56;5072614;28;20098;-51
2022/11/25 09:48:00;;;;;;;9.00;2.90;;;;;;;9.90;100.00;101260.44;5072857;28;20123;-54
2022/11/25 09:50:44;;;;;;;10.23;2.40;;;;;;;10.04;100.00;101254.38;5072692;28;20099;-55
2022/11/25 09:53:38;;;;;;;9.20;2.60;;;;;;;10.19;100.00;101266.66;5072952;28;20049;-53
2022/11/25 09:56:18;;;;;;;7.47;2.50;;;;;;;10.29;100.00;101272.22;5072788;28;20040;-53
2022/11/25 09:58:53;;;;;;;10.93;2.70;;;;;;;10.25;100.00;101268.94;5072583;28;20049;-52
2022/11/25 10:01:27;;;;;;;9.30;2.47;;;;;;;10.12;100.00;101281.09;5072724;28;20147;-54
2022/11/25 10:04:00;;;;;;;10.90;2.90;;;;;;;10.04;100.00;101291.19;5072446;28;20048;-53
2022/11/25 10:06:29;;;;;;;;;;;;;;;9.92;100.00;101283.03;5072666;28;20466;-52
2022/11/25 10:09:01;;;;;;;10.77;2.92;;;;;;;9.79;100.00;101290.75;5072137;28;19931;-57
2022/11/25 10:11:42;;;;;;;10.30;3.13;;;;;;;9.72;100.00;101292.03;5072720;28;20059;-57
2022/11/25 10:14:21;;;;;;;11.13;3.30;;;;;;;9.75;100.00;101285.75;5071744;28;20461;-57
2022/11/25 10:16:51;;;;;;;12.10;3.33;;;;;;;9.71;100.00;101295.56;5066885;28;20110;-60
2022/11/25 10:19:28;;;;;;;15.27;3.78;;;;;;;9.66;100.00;101291.50;5067453;28;20056;-59
2022/11/25 10:21:56;;;;;;;7.85;3.03;;;;;;;9.54;100.00;101299.09;5068218;28;20135;-57
2022/11/25 10:24:26;;;;;;;10.65;3.00;;;;;;;9.57;100.00;101308.59;5067255;28;20055;-57
2022/11/25 10:26:59;;;;;;;9.50;2.90;;;;;;;9.61;100.00;101307.50;5072142;28;20106;-60
2022/11/25 10:29:29;;;;;;;9.07;3.30;;;;;;;9.55;100.00;101308.69;5072201;28;20506;-59
2022/11/25 10:32:18;;;;;;;10.93;3.88;;;;;;;9.46;100.00;101307.41;5071016;28;20057;-60
2022/11/25 10:34:50;;;;;;;10.95;3.28;;;;;;;9.47;100.00;101309.09;5071037;28;20426;-57
2022/11/25 10:37:29;;;;;;;13.30;4.15;;;;;;;9.49;100.00;101309.03;5067331;28;20287;-57
2022/11/25 10:39:58;;;;;;;15.05;3.55;;;;;;;9.47;100.00;101313.50;5068443;28;20090;-57
2022/11/25 10:42:29;;;;;;;9.48;3.28;;;;;;;9.47;100.00;101314.34;5072152;28;20157;-57
2022/11/25 10:44:57;;;;;;;9.90;3.47;;;;;;;9.44;100.00;101316.28;5072253;28;20110;-58
2022/11/25 10:47:36;;;;;;;9.23;3.17;;;;;;;9.44;100.00;101313.66;5068109;28;20067;-58
2022/11/25 10:50:15;;;;;;;11.80;3.58;;;;;;;9.45;100.00;101326.69;5068277;28;20049;-58
2022/11/25 10:52:50;;;;;;;11.82;3.25;;;;;;;9.44;100.00;101324.16;5073218;28;20036;-58
2022/11/25 10:55:23;;;;;;;9.50;3.10;;;;;;;9.55;100.00;101326.22;5072779;28;20106;-58
2022/11/25 10:57:51;;;;;;;12.77;3.72;;;;;;;9.64;100.00;101328.34;5071673;28;20063;-58
2022/11/25 11:00:33;;;;;;;11.68;3.38;;;;;;;9.63;100.00;101330.13;5068445;28;20072;-53
2022/11/25 11:03:14;;;;;;;10.68;3.00;;;;;;;9.64;100.00;101331.00;5072878;28;20087;-53
2022/11/25 11:05:48;;;;;;;8.02;3.30;;;;;;;9.63;100.00;101340.63;5075802;28;20499;-53
2022/11/25 11:08:20;;;;;;;15.23;4.10;;;;;;;9.66;100.00;101338.78;5075912;28;20048;-51
2022/11/25 11:11:10;;;;;;;13.95;3.53;;;;;;;9.68;100.00;101339.53;5075757;28;20044;-51
2022/11/25 11:13:38;;;;;;;10.00;3.17;;;;;;;9.71;100.00;101340.22;5073846;28;20052;-52
2022/11/25 11:16:23;;;;;;;9.90;3.25;;;;;;;9.71;100.00;101347.28;5069899;28;20435;-53
2022/11/25 11:18:52;;;;;;;10.85;2.92;;;;;;;9.73;100.00;101346.22;5073265;28;20048;-53
2022/11/25 11:21:28;;;;;;;10.32;3.35;;;;;;;9.76;100.00;101353.97;5070882;28;20056;-54
2022/11/25 11:23:58;;;;;;;9.27;2.80;;;;;;;9.73;100.00;101361.16;5073495;28;20417;-53
2022/11/25 11:26:30;;;;;;;10.20;3.00;;;;;;;9.76;100.00;101367.09;5074081;28;20086;-51
2022/11/25 11:29:02;;;;;;;11.00;3.03;;;;;;;9.73;100.00;101372.50;5075397;28;20048;-52
2022/11/25 11:31:35;;;;;;;10.07;2.97;;;;;;;9.82;100.00;101372.00;5074406;28;20107;-52
2022/11/25 11:34:18;;;;;;;8.35;2.78;;;;;;;9.84;100.00;101377.19;5071147;28;20109;-52
2022/11/25 11:37:05;;;;;;;9.32;2.40;;;;;;;9.82;100.00;101372.00;5073580;28;20050;-52
2022/11/25 11:39:48;;;;;;;13.50;3.33;;;;;;;9.82;100.00;101379.88;5074982;28;20040;-50
2022/11/25 11:42:27;;;;;;;11.98;2.67;;;;;;;9.84;100.00;101385.06;5075144;28;20045;-51
2022/11/25 11:45:05;;;;;;;13.98;3.13;;;;;;;9.80;100.00;101394.03;5075022;28;20049;-50
2022/11/25 11:47:58;;;;;;;10.07;2.83;;;;;;;9.90;100.00;101397.03;5075035;28;20352;-49